createdAt,value
2018-01-15T00:01:31.139Z,1.51
2018-01-15T00:04:02.026Z,1.52
2018-01-15T00:06:32.780Z,1.54
2018-01-15T00:09:03.708Z,1.49
2018-01-15T00:11:34.482Z,1.50
2018-01-15T00:14:05.278Z,1.48
2018-01-15T00:16:36.134Z,1.66
2018-01-15T00:19:06.912Z,1.62
2018-01-15T00:21:37.788Z,1.73
2018-01-15T00:24:08.736Z,1.65
2018-01-15T00:26:39.587Z,1.62
2018-01-15T00:29:10.372Z,1.65
2018-01-15T00:31:41.265Z,1.58
2018-01-15T00:34:12.125Z,1.69
2018-01-15T00:36:42.892Z,1.73
2018-01-15T00:39:13.793Z,1.73
2018-01-15T00:41:44.606Z,1.71
2018-01-15T00:44:15.412Z,1.76
2018-01-15T00:46:46.198Z,1.79
2018-01-15T00:49:16.986Z,1.70
2018-01-15T00:51:47.812Z,1.68
2018-01-15T00:54:18.598Z,1.66
2018-01-15T00:56:51.460Z,1.75
2018-01-15T00:59:22.299Z,1.69
2018-01-15T01:01:53.116Z,1.72
2018-01-15T01:04:23.942Z,1.64
2018-01-15T01:06:54.713Z,1.73
2018-01-15T01:09:25.524Z,1.69
2018-01-15T01:11:56.288Z,1.66
2018-01-15T01:14:27.108Z,1.72
2018-01-15T01:16:57.876Z,1.68
2018-01-15T01:19:28.653Z,1.70
2018-01-15T01:21:59.412Z,1.68
2018-01-15T01:24:30.264Z,1.63
2018-01-15T01:27:01.012Z,1.65
2018-01-15T01:29:31.765Z,1.67
2018-01-15T01:32:02.505Z,1.74
2018-01-15T01:34:33.296Z,1.75
2018-01-15T01:37:04.064Z,1.76
2018-01-15T01:39:34.838Z,1.73
2018-01-15T01:42:05.629Z,1.71
2018-01-15T01:44:36.464Z,1.73
2018-01-15T01:47:07.265Z,1.73
2018-01-15T01:49:38.092Z,1.71
2018-01-15T01:52:08.868Z,1.64
2018-01-15T01:54:39.628Z,1.64
2018-01-15T01:57:10.487Z,1.53
2018-01-15T01:59:41.260Z,1.50
2018-01-15T02:02:11.994Z,1.27
2018-01-15T02:04:42.758Z,1.09
2018-01-15T02:07:13.506Z,0.87
2018-01-15T02:09:44.363Z,0.63
2018-01-15T02:12:15.191Z,0.43
2018-01-15T02:14:45.950Z,0.31
2018-01-15T02:17:16.701Z,0.24
2018-01-15T02:19:47.668Z,0.23
2018-01-15T02:22:18.527Z,0.21
2018-01-15T02:24:49.388Z,0.14
2018-01-15T02:27:20.165Z,0.11
2018-01-15T02:29:50.940Z,0.05
2018-01-15T02:32:21.717Z,-0.02
2018-01-15T02:34:52.478Z,-0.06
2018-01-15T02:37:23.223Z,-0.15
2018-01-15T02:39:54.019Z,-0.19
2018-01-15T02:42:24.765Z,-0.22
2018-01-15T02:44:55.509Z,-0.22
2018-01-15T02:47:26.340Z,-0.28
2018-01-15T02:49:57.134Z,-0.28
2018-01-15T02:52:27.904Z,-0.26
2018-01-15T02:54:58.665Z,-0.24
2018-01-15T02:57:29.428Z,-0.28
2018-01-15T03:00:00.205Z,-0.27
2018-01-15T03:02:30.976Z,-0.24
2018-01-15T03:05:01.827Z,-0.24
2018-01-15T03:07:32.610Z,-0.24
2018-01-15T03:10:03.387Z,-0.17
2018-01-15T03:12:34.196Z,-0.25
2018-01-15T03:15:04.983Z,-0.31
2018-01-15T03:17:35.749Z,-0.39
2018-01-15T03:20:06.504Z,-0.46
2018-01-15T03:22:37.283Z,-0.50
2018-01-15T03:25:08.039Z,-0.48
2018-01-15T03:27:38.796Z,-0.45
2018-01-15T03:30:09.597Z,-0.54
2018-01-15T03:32:40.356Z,-0.58
2018-01-15T03:35:11.164Z,-0.62
2018-01-15T03:37:41.900Z,-0.48
2018-01-15T03:40:12.663Z,-0.46
2018-01-15T03:42:43.404Z,-0.49
2018-01-15T03:45:14.417Z,-0.54
2018-01-15T03:47:45.196Z,-0.55
2018-01-15T03:50:15.976Z,-0.61
2018-01-15T03:52:46.772Z,-0.74
2018-01-15T03:55:17.544Z,-0.76
2018-01-15T03:57:48.284Z,-0.88
2018-01-15T04:00:19.053Z,-0.84
2018-01-15T04:02:49.837Z,-0.83
2018-01-15T04:05:20.592Z,-0.77
2018-01-15T04:07:51.404Z,-0.79
2018-01-15T04:10:22.186Z,-0.74
2018-01-15T04:12:52.948Z,-0.65
2018-01-15T04:15:23.724Z,-0.53
2018-01-15T04:17:54.473Z,-0.43
2018-01-15T04:20:25.412Z,-0.34
2018-01-15T04:22:56.218Z,-0.23
2018-01-15T04:25:27.002Z,-0.04
2018-01-15T04:27:57.817Z,0.05
2018-01-15T04:30:28.774Z,0.11
2018-01-15T04:32:59.541Z,0.09
2018-01-15T04:35:30.334Z,0.17
2018-01-15T04:38:01.073Z,0.21
2018-01-15T04:40:31.832Z,0.25
2018-01-15T04:43:02.600Z,0.23
2018-01-15T04:45:33.392Z,0.24
2018-01-15T04:48:04.162Z,0.23
2018-01-15T04:50:34.937Z,0.19
2018-01-15T04:53:05.763Z,0.06
2018-01-15T04:55:36.549Z,-0.04
2018-01-15T04:58:07.284Z,-0.19
2018-01-15T05:00:38.100Z,-0.22
2018-01-15T05:03:08.861Z,-0.33
2018-01-15T05:05:39.626Z,-0.37
2018-01-15T05:08:10.372Z,-0.48
2018-01-15T05:10:41.127Z,-0.55
2018-01-15T05:13:23.803Z,-0.65
2018-01-15T05:16:01.856Z,-0.73
2018-01-15T05:18:32.672Z,-0.74
2018-01-15T05:21:03.428Z,-0.81
2018-01-15T05:23:34.164Z,-0.94
2018-01-15T05:26:04.981Z,-1.06
2018-01-15T05:28:35.745Z,-1.16
2018-01-15T05:31:06.521Z,-1.21
2018-01-15T05:33:37.282Z,-1.23
2018-01-15T05:36:08.029Z,-1.19
2018-01-15T05:38:38.756Z,-1.20
2018-01-15T05:41:09.601Z,-1.19
2018-01-15T05:43:40.343Z,-1.10
2018-01-15T05:46:11.163Z,-1.12
2018-01-15T05:48:41.943Z,-1.05
2018-01-15T05:51:12.712Z,-0.92
2018-01-15T05:53:43.447Z,-0.91
2018-01-15T05:56:14.221Z,-0.93
2018-01-15T05:58:44.963Z,-0.96
2018-01-15T06:01:15.757Z,-0.96
2018-01-15T06:03:46.508Z,-0.81
2018-01-15T06:06:17.299Z,-0.72
2018-01-15T06:08:48.052Z,-0.73
2018-01-15T06:11:18.804Z,-0.75
2018-01-15T06:13:49.541Z,-0.67
2018-01-15T06:16:20.510Z,-0.68
2018-01-15T06:18:51.324Z,-0.76
2018-01-15T06:21:22.108Z,-0.82
2018-01-15T06:23:52.945Z,-1.00
2018-01-15T06:26:23.765Z,-1.05
2018-01-15T06:28:54.520Z,-1.14
2018-01-15T06:31:25.288Z,-1.25
2018-01-15T06:33:56.034Z,-1.36
2018-01-15T06:36:26.787Z,-1.24
2018-01-15T06:38:57.537Z,-1.32
2018-01-15T06:41:28.416Z,-1.22
2018-01-15T06:43:59.165Z,-1.29
2018-01-15T06:46:29.949Z,-1.26
2018-01-15T06:49:00.808Z,-1.20
2018-01-15T06:51:31.572Z,-1.30
2018-01-15T06:54:02.570Z,-1.24
2018-01-15T06:56:33.346Z,-1.32
2018-01-15T06:59:04.088Z,-1.33
2018-01-15T07:01:34.896Z,-1.35
2018-01-15T07:04:05.655Z,-1.34
2018-01-15T07:06:36.435Z,-1.41
2018-01-15T07:09:07.179Z,-1.23
2018-01-15T07:11:37.944Z,-1.18
2018-01-15T07:14:08.677Z,-1.27
2018-01-15T07:16:48.510Z,-1.33
2018-01-15T07:19:19.255Z,-1.37
2018-01-15T07:21:50.157Z,-1.35
2018-01-15T07:24:20.986Z,-1.31
2018-01-15T07:26:51.734Z,-1.27
2018-01-15T07:29:22.573Z,-1.17
2018-01-15T07:31:53.359Z,-1.04
2018-01-15T07:34:24.171Z,-0.92
2018-01-15T07:36:55.013Z,-0.78
2018-01-15T07:39:25.879Z,-0.65
2018-01-15T07:41:56.651Z,-0.49
2018-01-15T07:44:27.435Z,-0.44
2018-01-15T07:46:58.313Z,-0.37
2018-01-15T07:49:29.091Z,-0.28
2018-01-15T07:51:59.855Z,-0.15
2018-01-15T07:54:30.648Z,-0.13
2018-01-15T07:57:01.420Z,-0.21
2018-01-15T07:59:32.157Z,-0.16
2018-01-15T08:02:02.944Z,-0.04
2018-01-15T08:04:33.858Z,0.01
2018-01-15T08:07:04.621Z,-0.03
2018-01-15T08:09:35.416Z,-0.06
2018-01-15T08:12:10.282Z,-0.07
2018-01-15T08:14:41.065Z,0.09
2018-01-15T08:17:11.877Z,0.14
2018-01-15T08:19:42.698Z,0.16
2018-01-15T08:22:13.541Z,0.28
2018-01-15T08:24:44.445Z,0.43
2018-01-15T08:27:28.297Z,0.44
2018-01-15T08:29:59.081Z,0.37
2018-01-15T08:32:29.868Z,0.36
2018-01-15T08:35:00.764Z,0.34
2018-01-15T08:37:31.581Z,0.47
2018-01-15T08:40:02.443Z,0.48
2018-01-15T08:42:46.437Z,0.54
2018-01-15T08:45:17.217Z,0.59
2018-01-15T08:47:48.025Z,0.62
2018-01-15T08:50:18.865Z,0.51
2018-01-15T08:52:49.684Z,0.54
2018-01-15T08:55:20.459Z,0.54
2018-01-15T08:57:51.415Z,0.56
2018-01-15T09:00:23.074Z,0.62
2018-01-15T09:02:53.940Z,0.55
2018-01-15T09:05:24.737Z,0.66
2018-01-15T09:07:55.537Z,0.67
2018-01-15T09:10:26.284Z,0.55
2018-01-15T09:12:57.109Z,0.56
2018-01-15T09:15:27.912Z,0.65
2018-01-15T09:17:58.682Z,0.69
2018-01-15T09:20:29.433Z,0.82
2018-01-15T09:23:00.465Z,0.98
2018-01-15T09:25:31.223Z,0.94
2018-01-15T09:28:01.991Z,1.12
2018-01-15T09:30:32.813Z,0.86
2018-01-15T09:33:03.696Z,0.96
2018-01-15T09:35:34.435Z,1.02
2018-01-15T09:38:05.203Z,1.10
2018-01-15T09:40:35.971Z,1.10
2018-01-15T09:43:06.731Z,0.95
2018-01-15T09:45:37.563Z,1.03
2018-01-15T09:48:08.345Z,0.94
2018-01-15T09:50:39.121Z,1.04
2018-01-15T09:53:09.908Z,1.16
2018-01-15T09:55:40.678Z,1.17
2018-01-15T09:58:11.442Z,1.18
2018-01-15T10:00:42.204Z,1.05
2018-01-15T10:03:12.964Z,1.26
2018-01-15T10:05:43.742Z,1.30
2018-01-15T10:08:14.508Z,1.22
2018-01-15T10:10:45.267Z,1.28
2018-01-15T10:13:16.028Z,1.16
2018-01-15T10:15:46.796Z,1.30
2018-01-15T10:18:17.572Z,1.39
2018-01-15T10:20:48.441Z,1.13
2018-01-15T10:23:19.209Z,1.25
2018-01-15T10:25:50.004Z,1.28
2018-01-15T10:28:20.808Z,1.38
2018-01-15T10:30:51.521Z,1.36
2018-01-15T10:33:22.319Z,1.55
2018-01-15T10:35:53.168Z,1.69
2018-01-15T10:38:23.969Z,1.42
2018-01-15T10:40:54.705Z,1.59
2018-01-15T10:43:25.471Z,1.78
2018-01-15T10:45:56.263Z,1.86
2018-01-15T10:48:27.111Z,1.79
2018-01-15T10:50:57.880Z,1.88
2018-01-15T10:53:28.628Z,1.65
2018-01-15T10:55:59.401Z,1.45
2018-01-15T10:58:30.241Z,1.43
2018-01-15T11:01:07.247Z,1.55
2018-01-15T11:03:38.106Z,1.46
2018-01-15T11:06:08.932Z,1.49
2018-01-15T11:08:39.741Z,1.53
2018-01-15T11:11:10.631Z,1.58
2018-01-15T11:13:41.404Z,1.67
2018-01-15T11:16:12.207Z,1.62
2018-01-15T11:18:42.929Z,1.75
2018-01-15T11:21:13.656Z,1.87
2018-01-15T11:23:44.432Z,1.83
2018-01-15T11:26:15.322Z,1.67
2018-01-15T11:28:46.117Z,1.73
2018-01-15T11:31:16.859Z,1.79
2018-01-15T11:33:47.632Z,1.70
2018-01-15T11:36:18.360Z,1.59
2018-01-15T11:41:46.576Z,1.63
2018-01-15T11:44:17.315Z,1.62
2018-01-15T11:46:48.056Z,1.65
2018-01-15T11:49:18.799Z,1.85
2018-01-15T11:51:49.569Z,1.85
2018-01-15T11:54:20.340Z,1.88
2018-01-15T11:56:51.135Z,1.61
2018-01-15T11:59:21.993Z,1.51
2018-01-15T12:04:50.168Z,1.64
2018-01-15T12:07:20.928Z,1.75
2018-01-15T12:09:51.740Z,1.78
2018-01-15T12:12:22.496Z,1.82
2018-01-15T12:14:53.269Z,1.94
2018-01-15T12:17:24.032Z,1.98
2018-01-15T12:19:54.880Z,2.02
2018-01-15T12:22:25.696Z,1.93
2018-01-15T12:24:56.744Z,1.95
2018-01-15T12:27:27.495Z,1.92
2018-01-15T12:32:56.865Z,1.85
2018-01-15T12:35:27.640Z,1.71
2018-01-15T12:37:58.379Z,1.51
2018-01-15T12:40:29.125Z,1.31
2018-01-15T12:42:59.889Z,1.35
2018-01-15T12:45:30.644Z,1.24
2018-01-15T12:48:02.233Z,1.63
2018-01-15T12:50:33.252Z,2.08
2018-01-15T12:53:04.014Z,2.27
2018-01-15T12:55:34.853Z,2.20
2018-01-15T12:58:05.605Z,2.27
2018-01-15T13:00:36.356Z,2.39
2018-01-15T13:03:07.097Z,2.21
2018-01-15T13:05:49.142Z,2.33
2018-01-15T13:08:32.047Z,2.32
2018-01-15T13:11:02.901Z,2.29
2018-01-15T13:13:33.666Z,2.40
2018-01-15T13:16:04.438Z,2.45
2018-01-15T13:18:35.197Z,2.57
2018-01-15T13:24:03.512Z,2.46
2018-01-15T13:26:34.333Z,2.25
2018-01-15T13:29:05.075Z,2.12
2018-01-15T13:31:35.830Z,2.17
2018-01-15T13:34:06.559Z,2.25
2018-01-15T13:36:37.330Z,2.18
2018-01-15T13:39:08.066Z,2.41
2018-01-15T13:41:39.036Z,2.40
2018-01-15T13:44:09.804Z,2.65
2018-01-15T13:46:40.569Z,2.69
2018-01-15T13:49:11.335Z,2.51
2018-01-15T13:51:42.113Z,2.58
2018-01-15T13:54:12.860Z,2.50
2018-01-15T13:56:43.708Z,2.33
2018-01-15T13:59:14.495Z,2.33
2018-01-15T14:01:45.327Z,2.32
2018-01-15T14:04:16.077Z,2.20
2018-01-15T14:06:46.825Z,2.15
2018-01-15T14:09:17.593Z,2.33
2018-01-15T14:11:48.367Z,2.38
2018-01-15T14:14:19.155Z,2.29
2018-01-15T14:16:49.953Z,2.21
2018-01-15T14:19:20.708Z,2.15
2018-01-15T14:21:51.476Z,2.02
2018-01-15T14:24:22.248Z,1.90
2018-01-15T14:26:53.150Z,1.73
2018-01-15T14:29:23.909Z,1.57
2018-01-15T14:31:54.692Z,1.52
2018-01-15T14:34:25.457Z,1.59
2018-01-15T14:36:56.340Z,1.52
2018-01-15T14:39:27.089Z,1.58
2018-01-15T14:41:57.850Z,1.53
2018-01-15T14:44:28.632Z,1.45
2018-01-15T14:46:59.472Z,1.30
2018-01-15T14:49:30.232Z,1.20
2018-01-15T14:52:01.021Z,1.18
2018-01-15T14:54:31.768Z,1.13
2018-01-15T14:57:02.646Z,1.09
2018-01-15T14:59:33.408Z,1.07
2018-01-15T15:02:04.175Z,1.09
2018-01-15T15:04:34.920Z,1.08
2018-01-15T15:13:01.907Z,1.05
2018-01-15T15:15:32.657Z,1.05
2018-01-15T15:18:03.436Z,1.02
2018-01-15T15:20:34.167Z,0.99
2018-01-15T15:23:04.924Z,1.01
2018-01-15T15:25:35.684Z,0.94
2018-01-15T15:28:06.453Z,0.94
2018-01-15T15:30:37.219Z,0.92
2018-01-15T15:33:07.965Z,0.90
2018-01-15T15:35:38.745Z,0.82
2018-01-15T15:38:09.515Z,0.78
2018-01-15T15:40:40.266Z,0.81
2018-01-15T15:43:11.046Z,0.77
2018-01-15T15:45:41.787Z,0.72
2018-01-15T15:48:12.548Z,0.75
2018-01-15T15:50:43.305Z,0.74
2018-01-15T15:53:14.121Z,0.74
2018-01-15T15:55:45.001Z,0.75
2018-01-15T15:58:15.777Z,0.77
2018-01-15T16:00:46.528Z,0.77
2018-01-15T16:03:17.308Z,0.78
2018-01-15T16:05:48.041Z,0.76
2018-01-15T16:08:18.872Z,0.67
2018-01-15T16:10:49.632Z,0.60
2018-01-15T16:13:20.410Z,0.50
2018-01-15T16:15:51.149Z,0.51
2018-01-15T16:18:22.012Z,0.47
2018-01-15T16:20:52.755Z,0.49
2018-01-15T16:23:23.505Z,0.47
2018-01-15T16:25:54.233Z,0.49
2018-01-15T16:31:24.325Z,0.52
2018-01-15T16:33:55.116Z,0.45
2018-01-15T16:36:25.874Z,0.49
2018-01-15T16:38:56.727Z,0.44
2018-01-15T16:41:27.489Z,0.44
2018-01-15T16:43:58.252Z,0.42
2018-01-15T16:46:28.984Z,0.44
2018-01-15T16:48:59.747Z,0.46
2018-01-15T16:51:30.511Z,0.47
2018-01-15T16:54:01.372Z,0.48
2018-01-15T17:02:28.157Z,0.57
2018-01-15T17:04:58.968Z,0.58
2018-01-15T17:07:29.795Z,0.60
2018-01-15T17:10:00.583Z,0.61
2018-01-15T17:12:31.335Z,0.57
2018-01-15T17:18:00.278Z,0.54
2018-01-15T17:20:31.040Z,0.52
2018-01-15T17:23:01.808Z,0.53
2018-01-15T17:25:32.590Z,0.49
2018-01-15T17:28:03.349Z,0.52
2018-01-15T17:30:34.383Z,0.51
2018-01-15T17:33:05.167Z,0.54
2018-01-15T17:35:35.927Z,0.52
2018-01-15T17:38:06.708Z,0.54
2018-01-15T17:40:37.472Z,0.58
2018-01-15T17:43:08.220Z,0.54
2018-01-15T17:45:39.201Z,0.58
2018-01-15T17:48:09.951Z,0.54
2018-01-15T17:50:40.712Z,0.53
2018-01-15T17:53:11.468Z,0.53
2018-01-15T17:55:42.215Z,0.54
2018-01-15T17:58:12.985Z,0.52
2018-01-15T18:00:43.740Z,0.54
2018-01-15T18:03:14.492Z,0.51
2018-01-15T18:05:45.257Z,0.53
2018-01-15T18:08:15.996Z,0.55
2018-01-15T18:10:46.772Z,0.54
2018-01-15T18:13:17.521Z,0.56
2018-01-15T18:15:48.287Z,0.52
2018-01-15T18:18:19.036Z,0.45
2018-01-15T18:20:49.799Z,0.46
2018-01-15T18:23:20.540Z,0.38
2018-01-15T18:25:51.292Z,0.39
2018-01-15T18:28:22.046Z,0.37
2018-01-15T18:30:54.863Z,0.40
2018-01-15T18:33:25.608Z,0.41
2018-01-15T18:35:56.389Z,0.45
2018-01-15T18:38:27.140Z,0.42
2018-01-15T18:40:57.884Z,0.39
2018-01-15T18:43:28.619Z,0.47
2018-01-15T18:45:59.425Z,0.46
2018-01-15T18:48:30.177Z,0.43
2018-01-15T18:51:00.941Z,0.45
2018-01-15T18:53:31.679Z,0.44
2018-01-15T18:56:02.464Z,0.41
2018-01-15T18:58:33.220Z,0.38
2018-01-15T19:01:03.963Z,0.37
2018-01-15T19:03:34.699Z,0.36
2018-01-15T19:06:05.451Z,0.32
2018-01-15T19:08:36.179Z,0.31
2018-01-15T19:11:07.051Z,0.34
2018-01-15T19:13:37.806Z,0.31
2018-01-15T19:16:10.600Z,0.30
2018-01-15T19:18:41.370Z,0.33
2018-01-15T19:21:12.131Z,0.25
2018-01-15T19:23:42.868Z,0.26
2018-01-15T19:26:13.643Z,0.29
2018-01-15T19:28:44.419Z,0.28
2018-01-15T19:31:15.182Z,0.30
2018-01-15T19:33:45.942Z,0.28
2018-01-15T19:36:22.988Z,0.26
2018-01-15T19:38:55.613Z,0.29
2018-01-15T19:41:26.469Z,0.23
2018-01-15T19:44:04.293Z,0.24
2018-01-15T19:46:41.312Z,0.26
2018-01-15T19:49:18.145Z,0.23
2018-01-15T19:52:10.122Z,0.22
2018-01-15T19:54:48.107Z,0.21
2018-01-15T19:57:25.118Z,0.22
2018-01-15T20:00:02.200Z,0.23
2018-01-15T20:02:39.232Z,0.22
2018-01-15T20:05:16.210Z,0.20
2018-01-15T20:07:53.047Z,0.24
2018-01-15T20:10:30.098Z,0.25
2018-01-15T20:13:00.933Z,0.23
2018-01-15T20:15:31.807Z,0.27
2018-01-15T20:18:02.644Z,0.23
2018-01-15T20:20:33.388Z,0.23
2018-01-15T20:23:04.205Z,0.28
2018-01-15T20:25:35.035Z,0.19
2018-01-15T20:28:16.989Z,0.17
2018-01-15T20:30:47.997Z,0.17
2018-01-15T20:33:18.775Z,0.21
2018-01-15T20:35:49.566Z,0.24
2018-01-15T20:38:20.324Z,0.16
2018-01-15T20:40:51.139Z,0.21
2018-01-15T20:43:21.952Z,0.19
2018-01-15T20:45:52.709Z,0.19
2018-01-15T20:48:30.603Z,0.20
2018-01-15T20:51:01.406Z,0.21
2018-01-15T20:53:32.217Z,0.27
2018-01-15T20:56:03.008Z,0.29
2018-01-15T20:58:33.871Z,0.34
2018-01-15T21:01:04.660Z,0.41
2018-01-15T21:03:41.711Z,0.34
2018-01-15T21:06:12.518Z,0.33
2018-01-15T21:08:43.352Z,0.32
2018-01-15T21:11:14.084Z,0.38
2018-01-15T21:13:44.843Z,0.37
2018-01-15T21:16:15.654Z,0.43
2018-01-15T21:18:46.419Z,0.46
2018-01-15T21:21:17.242Z,0.48
2018-01-15T21:23:48.229Z,0.50
2018-01-15T21:26:18.993Z,0.57
2018-01-15T21:28:49.812Z,0.58
2018-01-15T21:31:20.576Z,0.45
2018-01-15T21:33:51.432Z,0.51
2018-01-15T21:36:22.245Z,0.47
2018-01-15T21:38:53.143Z,0.44
2018-01-15T21:41:23.877Z,0.41
2018-01-15T21:43:54.736Z,0.40
2018-01-15T21:46:25.585Z,0.39
2018-01-15T21:48:56.440Z,0.30
2018-01-15T21:51:27.298Z,0.32
2018-01-15T21:53:58.081Z,0.32
2018-01-15T21:56:28.851Z,0.29
2018-01-15T21:58:59.678Z,0.19
2018-01-15T22:01:30.499Z,0.25
2018-01-15T22:04:01.336Z,0.22
2018-01-15T22:06:32.177Z,0.20
2018-01-15T22:09:03.002Z,0.19
2018-01-15T22:11:33.895Z,0.23
2018-01-15T22:14:04.724Z,0.21
2018-01-15T22:16:35.488Z,0.20
2018-01-15T22:19:06.253Z,0.22
2018-01-15T22:21:37.085Z,0.20
2018-01-15T22:24:07.895Z,0.21
2018-01-15T22:26:38.720Z,0.17
2018-01-15T22:29:09.585Z,0.15
2018-01-15T22:31:40.472Z,0.14
2018-01-15T22:34:11.485Z,0.13
2018-01-15T22:36:42.252Z,0.16
2018-01-15T22:39:13.035Z,0.08
2018-01-15T22:41:43.868Z,0.08
2018-01-15T22:44:14.735Z,0.09
2018-01-15T22:46:45.484Z,-0.02
2018-01-15T22:49:16.448Z,0.03
2018-01-15T22:51:47.281Z,0.08
2018-01-15T22:54:18.052Z,0.04
2018-01-15T22:56:48.800Z,0.01
2018-01-15T22:59:19.641Z,0.00
2018-01-15T23:01:50.408Z,-0.08
2018-01-15T23:04:21.197Z,-0.05
2018-01-15T23:06:52.004Z,-0.05
2018-01-15T23:09:22.833Z,-0.06
2018-01-15T23:11:53.639Z,-0.10
2018-01-15T23:14:24.447Z,-0.05
2018-01-15T23:16:55.256Z,-0.09
2018-01-15T23:19:26.160Z,-0.11
2018-01-15T23:21:56.896Z,-0.12
2018-01-15T23:24:27.648Z,-0.17
2018-01-15T23:26:58.559Z,-0.18
2018-01-15T23:29:29.336Z,-0.25
2018-01-15T23:32:00.082Z,-0.18
2018-01-15T23:34:30.827Z,-0.21
2018-01-15T23:37:01.605Z,-0.19
2018-01-15T23:39:32.400Z,-0.17
2018-01-15T23:42:03.172Z,-0.17
2018-01-15T23:44:33.940Z,-0.17
2018-01-15T23:47:04.728Z,-0.13
2018-01-15T23:49:35.516Z,-0.08
2018-01-15T23:52:06.251Z,-0.11
2018-01-15T23:54:37.014Z,-0.23
2018-01-15T23:57:07.753Z,-0.17
2018-01-15T23:59:38.497Z,-0.14
